x

St. Joseph, Mi (sjom4) Weather Station

7:41am - Mon 30th Mar 2015 All times are CDT. -5 hours from GMT.

  • Wind
    8mph, 13mph gusts
  • Air Temp 35°f
  • Sea Pressure 1016.6mb
  • St. Joseph, Mi
  • St. Joseph, Mi

More Historic Weather Station data

Upgrade to MSW Pro to gain access to the past 30 days of data for over 8000 Wavebouys and Weather Stations around the globe.

Join Pro

Comparision Forecast

View Surf forecast
   
Mon 03/30 7:41am 8 13 mph 1016.6mb 35f
7:00am 8 10 mph 1015.6mb 34f
6:50am 8 10 mph 1015.6mb 34f
6:40am 7 10 mph 1016.3mb 34f
6:30am 7 10 mph 1015.2mb 34f
6:20am 7 10 mph 1015.2mb 35f
6:10am 7 10 mph 1015.6mb 35f
6:00am 7 9 mph 1015.6mb 34f
5:50am 6 9 mph 1015.2mb 34f
5:40am 6 9 mph 1015.2mb 34f
5:30am 6 8 mph 1015.2mb 34f
5:20am 6 8 mph 1015.2mb 34f
5:10am 6 8 mph 1015.2mb 34f
5:00am 6 9 mph 1014.9mb 35f
4:50am 7 9 mph 1014.9mb 35f
4:40am 7 11 mph 1014.2mb 35f
4:30am 7 9 mph 1014.9mb 35f
4:20am 6 8 mph 1014.2mb 35f
4:10am 6 10 mph 1013.9mb 36f
4:00am 8 11 mph 1013.9mb 36f
3:50am 8 11 mph 1013.9mb 37f
3:40am 8 10 mph 1014.2mb 37f
3:39am 8 14 mph 1013.9mb 37f
3:30am 7 9 mph 1014.6mb 37f
3:20am 8 13 mph 1014.6mb 37f
3:10am 9 14 mph 1014.9mb 37f
3:00am 8 13 mph 1014.9mb 37f
2:40am 8 11 mph 1014.6mb 36f
2:39am 8 13 mph 1014.6mb 36f
2:30am 8 11 mph 1014.2mb 36f
2:20am 9 11 mph 1013.9mb 36f
2:10am 9 13 mph 1013.5mb 36f
2:00am 8 11 mph 1013.5mb 36f
1:50am 9 11 mph 1013.5mb 36f
1:40am 8 10 mph 1013.5mb 36f
1:38am 9 14 mph 1014.2mb 36f
1:30am 8 11 mph 1013.2mb 36f
1:20am 8 11 mph 1013.2mb 36f
1:10am 7 10 mph 1013.2mb 37f
1:00am 7 11 mph 1013.2mb 37f
12:50am 9 14 mph 1013.5mb 37f
12:40am 9 15 mph 1013.5mb 38f
12:38am 10 18 mph 1013.9mb 38f
12:30am 11 18 mph 1013.5mb 38f
12:20am 13 17 mph 1013.5mb 38f
12:10am 9 16 mph 1013.5mb 37f
12:00am 13 18 mph 1013.5mb 38f
Sun 03/29 11:50pm 10 15 mph 1013.5mb 37f
11:40pm 11 15 mph 1013.2mb 38f
11:38pm 11 15 mph 1012.5mb 38f
11:30pm 10 15 mph 1013.2mb 37f
11:20pm 9 11 mph 1013.2mb 37f
11:10pm 8 13 mph 1013.2mb 37f
11:00pm 9 14 mph 1012.9mb 37f
10:50pm 9 13 mph 1012.9mb 38f
10:40pm 10 15 mph 1012.5mb 38f
10:37pm 13 16 mph 1012.2mb 38f
10:30pm 13 16 mph 1012.5mb 38f
10:20pm 10 15 mph 1012.2mb 38f
10:10pm 8 11 mph 1012.2mb 38f
10:00pm 10 14 mph 1011.9mb 39f
9:50pm 10 14 mph 1011.5mb 39f
9:40pm 10 15 mph 1011.2mb 38f
9:37pm 11 24 mph 1011.2mb 38f
9:20pm 11 17 mph 1010.8mb 38f
9:10pm 15 20 mph 1010.8mb 39f
9:00pm 18 24 mph 1010.5mb 39f
8:50pm 20 24 mph 1010.2mb 38f
8:40pm 21 24 mph 1010.2mb 38f
8:36pm 21 24 mph 1010.2mb 38f
8:30pm 18 22 mph 1009.8mb 37f
8:20pm 16 18 mph 1009.5mb 37f
8:10pm 16 20 mph 1008.8mb 38f
8:00pm 20 26 mph 1008.1mb 41f
7:50pm 22 31 mph 1007.8mb 44f
7:40pm 22 30 mph 1007.8mb 44f
7:36pm 16
mph
1007.8mb 44f
7:30pm 17 26 mph 1007.5mb 44f
7:20pm 17 28 mph 1007.8mb 43f
7:10pm 16 30 mph 1008.1mb 43f
7:02pm 20 30 mph 1008.5mb 43f
7:00pm 17 25 mph 1007.8mb 43f
6:50pm 18 26 mph 1007.8mb 43f
6:40pm 17 26 mph 1007.8mb 43f
6:35pm 16
mph
1008.1mb 42f
6:30pm 18 29 mph 1008.1mb 43f
6:20pm 16 26 mph 1008.1mb 42f
6:10pm 16 29 mph 1008.5mb 42f
6:00pm 20 26 mph 1008.8mb 42f
5:50pm 18 29 mph 1008.8mb 41f
5:47pm 16 29 mph 1009.5mb 40f
5:40pm 15 26 mph 1009.1mb 40f
5:30pm 22 29 mph 1009.8mb 40f
5:20pm 21 30 mph 1010.2mb 39f
5:10pm 24 34 mph 1010.5mb 40f
5:00pm 22 34 mph 1010.5mb 40f
4:50pm 25 33 mph 1010.5mb 40f
4:43pm 20 32 mph 1010.5mb 40f
4:40pm 22 29 mph 1010.5mb 40f
4:30pm 15 28 mph 1010.8mb 40f
4:20pm 18 29 mph 1010.5mb 39f
4:00pm 11 22 mph 1011.2mb 38f
3:50pm 16 25 mph 1011.5mb 39f
3:40pm 16 25 mph 1011.5mb 38f
3:34pm 18 24 mph 1011.2mb 38f
3:30pm 13 25 mph 1012.2mb 38f
3:20pm 10 22 mph 1011.9mb 37f
3:10pm 20 28 mph 1011.9mb 37f
3:00pm 14 24 mph 1011.2mb 37f
2:50pm 11 22 mph 1010.8mb 36f
2:40pm 11 30 mph 1011.9mb 36f
2:34pm 15
mph
1012.2mb 36f
2:30pm 16 25 mph 1012.9mb 36f
2:20pm 9 25 mph 1013.2mb 36f
2:10pm 15 29 mph 1012.9mb 37f
2:00pm 14 22 mph 1013.5mb 37f
1:50pm 14 21 mph 1013.2mb 37f
1:40pm 13 21 mph 1012.9mb 37f
1:33pm 10 25 mph 1012.9mb 37f
1:30pm 13 22 mph 1013.2mb 37f
1:20pm 13 22 mph 1013.5mb 38f
1:10pm 13 18 mph 1013.2mb 38f
1:00pm 13 25 mph 1013.5mb 39f
12:50pm 10 24 mph 1013.2mb 40f
12:40pm 14 26 mph 1013.9mb 41f
12:33pm 11
mph
1014.2mb 41f
12:30pm 15 23 mph 1014.2mb 41f
12:20pm 11 22 mph 1014.6mb 41f
12:10pm 13 26 mph 1015.2mb 41f
12:00pm 14 26 mph 1015.6mb 41f
11:50am 15 28 mph 1015.9mb 41f
11:40am 18 29 mph 1015.9mb 41f
11:38am 15 29 mph 1016.3mb 40f
11:30am 17 28 mph 1016.3mb 40f
11:20am 11 22 mph 1016.9mb 40f
11:10am 15 24 mph 1017.6mb 39f
11:00am 14 22 mph 1017.9mb 38f
10:40am 14 23 mph 1019mb 38f
10:32am 15 25 mph 1018.6mb 37f
10:30am 13 25 mph 1019mb 37f
10:20am 11 23 mph 1019.6mb 37f
10:10am 10 23 mph 1020mb 37f
10:00am 14 22 mph 1020.3mb 37f
9:50am 9 21 mph 1020.3mb 36f
9:40am 14 20 mph 1020.3mb 36f
9:32am 14 22 mph 1020.3mb 35f
9:30am 11 22 mph 1020mb 35f
9:20am 11 17 mph 1020.3mb 35f
9:10am 10 21 mph 1020.7mb 34f
9:00am 10 20 mph 1021mb 33f
8:50am 10 17 mph 1021.7mb 33f
8:40am 10 23 mph 1022mb 32f
8:31am 7 23 mph 1022mb 32f
8:30am 7 17 mph 1022.4mb 32f
8:20am 15 22 mph 1022.4mb 32f
8:10am 10 15 mph 1022.4mb 31f
8:00am 8 14 mph 1022mb 31f
7:50am 7 15 mph 1022mb 30f
7:40am 8 13 mph 1022.4mb 29f
7:31am 9 18 mph 1022mb 29f
7:30am 9 14 mph 1022.4mb 29f
7:20am 8 15 mph 1022mb 29f
7:10am 8 18 mph 1021.3mb 29f
7:00am 6 15 mph 1021.3mb 28f
6:50am 8 15 mph 1021.7mb 28f
6:40am 7 13 mph 1022mb 28f
6:30am 5 15 mph 1022mb 27f
6:20am 6 14 mph 1021.7mb 27f
6:10am 7 11 mph 1022.4mb 27f
6:00am 7 13 mph 1022.7mb 27f
5:50am 5 14 mph 1023mb 27f
5:40am 6 14 mph 1022.4mb 27f
5:30am 8 14 mph 1023mb 27f
5:20am 6 13 mph 1023.4mb 27f
5:10am 7 13 mph 1023.4mb 27f
5:00am 6 11 mph 1023mb 27f
4:50am 7 14 mph 1022.7mb 27f
4:40am 7 13 mph 1023.7mb 27f
4:30am 7 14 mph 1023.7mb 26f
4:20am 7 13 mph 1023mb 26f
4:10am 8 11 mph 1023mb 26f
4:00am 7 14 mph 1024mb 25f
3:50am 7 13 mph 1023.7mb 25f
3:40am 7 13 mph 1023.4mb 25f
3:30am 7 11 mph 1024.4mb 25f
3:29am 6 11 mph 1024.4mb 25f
3:20am 8 11 mph 1024.4mb 24f
3:10am 5 8 mph 1024mb 23f
3:00am 5 9 mph 1024mb 23f
2:50am 5 9 mph 1025.1mb 23f
2:40am 6 9 mph 1025.1mb 23f
2:30am 6 9 mph 1024.7mb 23f
2:29am 6 10 mph 1024.7mb 23f
2:20am 7 10 mph 1025.1mb 24f
2:10am 7 10 mph 1025.7mb 24f
2:00am 6 9 mph 1025.1mb 23f
1:50am 6 10 mph 1025.4mb 23f
1:40am 6 10 mph 1025.7mb 23f
1:30am 5 9 mph 1025.1mb 23f
1:28am 6 9 mph 1025.1mb 23f
1:20am 6 9 mph 1026.1mb 23f
1:10am 5 9 mph 1026.1mb 23f
1:00am 5 9 mph 1025.4mb 23f
12:50am 5 8 mph 1026.1mb 23f
12:40am 3 8 mph 1025.4mb 22f
12:30am 3 8 mph 1025.4mb 22f
12:28am 3 9 mph 1025.4mb 22f
12:20am 3 9 mph 1026.4mb 22f
12:00am 5 8 mph 1025.7mb 22f
Sat 03/28 11:50pm 3 7 mph 1026.1mb 23f
11:40pm 5 8 mph 1026.8mb 23f
11:30pm 3 7 mph 1026.1mb 23f
11:28pm 5 7 mph 1026.8mb 23f
11:20pm 3 6 mph 1026.1mb 23f
11:10pm 3 6 mph 1026.8mb 23f
11:00pm 3 6 mph 1026.8mb 23f
10:50pm 3 5 mph 1026.4mb 23f
10:40pm 2 6 mph 1027.1mb 23f
10:30pm 2 6 mph 1027.1mb 23f
10:27pm 2 6 mph 1027.1mb 23f
10:20pm 2 5 mph 1026.1mb 23f
10:10pm 1 3 mph 1027.1mb 23f
10:00pm 2 3 mph 1027.4mb 23f
9:50pm 1 2 mph 1027.1mb 23f
9:40pm  -  1 mph 1026.4mb 23f
9:30pm  -  1 mph 1027.1mb 23f
9:27pm  -  1 mph 1027.1mb 23f
9:20pm  -  1 mph 1027.4mb 23f
9:10pm  -  1 mph 1027.1mb 24f
9:00pm  -  1 mph 1026.4mb 24f
8:50pm  -  1 mph 1027.1mb 24f
8:40pm  -  mph 1027.4mb 24f
8:30pm  -  mph 1027.4mb 24f
8:26pm  -  3 mph 1026.8mb 24f
8:20pm  -  mph 1026.8mb 24f
8:10pm  -  1 mph 1026.4mb 24f
8:00pm  -  1 mph 1026.4mb 24f
7:50pm 1 3 mph 1026.8mb 25f
7:40pm 2 3 mph 1027.1mb 25f
7:30pm 2 5 mph 1027.1mb 25f
7:26pm 3 7 mph 1027.1mb 25f
7:20pm 2 3 mph 1027.1mb 25f
7:10pm 3 5 mph 1026.8mb 26f
7:00pm 5 6 mph 1026.8mb 26f
6:50pm 5 7 mph 1026.8mb 26f
6:40pm 3 7 mph 1026.4mb 26f
6:30pm 6 7 mph 1026.4mb 27f
6:26pm 6 10 mph 1026.8mb 27f
6:20pm 5 8 mph 1026.8mb 27f
6:10pm 7 10 mph 1027.1mb 27f
6:00pm 7 9 mph 1027.4mb 27f
5:50pm 7 9 mph 1027.4mb 27f
5:40pm 7 9 mph 1027.4mb 27f
5:30pm 7 8 mph 1027.1mb 27f
5:25pm 7 10 mph 1027.1mb 27f
5:20pm 6 9 mph 1026.8mb 27f
5:10pm 6 9 mph 1026.8mb 27f
5:00pm 7 10 mph 1026.8mb 27f
4:50pm 7 9 mph 1026.8mb 26f
4:40pm 7 9 mph 1027.1mb 26f
4:30pm 7 9 mph 1027.1mb 26f
4:25pm 8 11 mph 1026.8mb 26f
4:20pm 7 11 mph 1027.4mb 27f
4:10pm 8 10 mph 1027.4mb 26f
4:00pm 8 10 mph 1027.4mb 26f
3:50pm 8 10 mph 1027.1mb 26f
3:40pm 6 7 mph 1026.8mb 26f
3:30pm 5 7 mph 1026.4mb 26f
3:24pm 6 13 mph 1027.1mb 26f
3:20pm 6 7 mph 1026.8mb 26f
3:10pm 6 9 mph 1026.8mb 26f
3:00pm 6 9 mph 1027.1mb 26f
2:50pm 8 10 mph 1027.8mb 25f
2:40pm 9 13 mph 1028.1mb 25f
2:30pm 8 11 mph 1028.1mb 25f
2:24pm 8 11 mph 1027.4mb 25f
2:20pm 8 10 mph 1027.8mb 25f
2:10pm 9 11 mph 1027.4mb 25f
2:00pm 8 10 mph 1027.4mb 25f
1:50pm 7 9 mph 1027.4mb 25f
1:40pm 7 8 mph 1027.4mb 25f
1:30pm 6 8 mph 1027.4mb 25f
1:24pm 6 9 mph 1027.8mb 25f
1:20pm 6 7 mph 1027.8mb 25f
1:10pm 6 7 mph 1027.8mb 25f
1:00pm 6 8 mph 1028.1mb 25f
12:50pm 6 8 mph 1028.4mb 25f
12:40pm 6 8 mph 1028.1mb 24f
12:30pm 7 11 mph 1028.4mb 25f
12:23pm 8 11 mph 1027.8mb 24f
12:20pm 8 11 mph 1028.4mb 24f
12:10pm 8 10 mph 1028.1mb 24f
12:00pm 7 8 mph 1028.1mb 24f
11:50am 8 9 mph 1027.8mb 24f
11:40am 6 10 mph 1028.1mb 23f
11:30am 7 9 mph 1028.4mb 23f
11:23am 7 10 mph 1028.8mb 23f
11:20am 7 10 mph 1028.8mb 23f
11:10am 7 9 mph 1028.8mb 23f
11:00am 6 8 mph 1028.4mb 22f
10:50am 6 10 mph 1027.8mb 23f
10:40am 6 9 mph 1027.8mb 22f
10:30am 6 8 mph 1027.8mb 22f
10:22am 6 8 mph 1028.4mb 22f
10:20am 6 7 mph 1028.4mb 22f
10:10am 5 8 mph 1028.1mb 22f
10:00am 6 8 mph 1027.4mb 22f
9:50am 3 6 mph 1027.4mb 22f
9:40am 3 5 mph 1028.1mb 21f
9:30am 2 5 mph 1028.1mb 21f
9:22am 3 5 mph 1027.4mb 21f
9:20am 2 3 mph 1027.1mb 21f
9:10am 2 3 mph 1027.4mb 21f
9:00am  -  3 mph 1027.8mb 21f
8:50am 1 3 mph 1026.8mb 21f
8:40am 1 5 mph 1027.4mb 19f
8:30am 1 5 mph 1026.8mb 19f
8:22am 2 8 mph 1027.1mb 19f
8:20am 3 6 mph 1027.4mb 19f
8:10am 1 6 mph 1026.4mb 18f
8:00am 2 6 mph 1026.8mb 18f
7:50am 2 7 mph 1026.4mb 17f
7:40am 3 8 mph 1026.8mb 17f
7:30am 3 6 mph 1027.1mb 17f
7:21am 3 6 mph 1027.1mb 16f
7:20am 3 6 mph 1026.4mb 16f
7:10am 3 5 mph 1026.8mb 15f
7:00am 3 5 mph 1026.4mb 15f
6:50am 1 2 mph 1025.7mb 15f
6:40am  -  2 mph 1026.4mb 15f
6:30am  -  2 mph 1025.4mb 15f
6:21am 1 3 mph 1025.7mb 15f
6:20am 1 2 mph 1025.7mb 15f
6:10am  -  2 mph 1026.1mb 15f
6:00am  -  2 mph 1025.1mb 15f
5:50am  -  2 mph 1025.4mb 15f
5:40am  -  2 mph 1024.7mb 15f
5:30am 1 3 mph 1025.1mb 15f
5:20am 1 6 mph 1025.1mb 15f
5:10am 2 5 mph 1024.4mb 15f
5:00am 2 3 mph 1024.7mb 16f
4:50am 2 3 mph 1024mb 16f
4:40am 2 6 mph 1024.7mb 16f
4:30am 2 3 mph 1023.7mb 16f
4:20am 2 5 mph 1024.4mb 16f
4:10am 2 5 mph 1023.4mb 16f
4:00am 3 6 mph 1024.4mb 16f
3:50am 3 6 mph 1023.7mb 17f
3:40am 1 5 mph 1024mb 17f
3:30am 1 7 mph 1023.4mb 17f
3:20am 3 10 mph 1024mb 17f
3:10am 5 8 mph 1024mb 18f
3:00am 6 8 mph 1023.4mb 18f
2:50am 6 9 mph 1024mb 18f
2:40am 5 9 mph 1023.4mb 18f
2:30am 3 9 mph 1024mb 19f
2:20am 5 13 mph 1023.7mb 19f
2:19am 5 13 mph 1024mb 19f
2:10am 5 10 mph 1023.4mb 19f
2:00am 5 10 mph 1024mb 19f
1:50am 3 8 mph 1023.7mb 19f
1:40am 6 9 mph 1023.4mb 20f
1:30am 6 8 mph 1024mb 20f
1:20am 6 11 mph 1023mb 20f
1:19am 5 11 mph 1023.7mb 20f
1:10am 5 10 mph 1023mb 20f
1:00am 5 10 mph 1023.7mb 20f
12:50am 6 10 mph 1023mb 21f
12:40am 3 10 mph 1023.4mb 21f
12:30am 6 10 mph 1023.7mb 22f
12:20am 8 13 mph 1023.4mb 22f
12:18am 5 16 mph 1023mb 22f
12:10am 7 13 mph 1022.7mb 22f
12:00am 9 16 mph 1023.7mb 23f
Fri 03/27 11:50pm 10 15 mph 1023.4mb 23f
11:40pm 10 15 mph 1022.7mb 23f
11:30pm 9 15 mph 1023mb 23f
11:20pm 7 17 mph 1023.4mb 23f
11:18pm 10 18 mph 1023mb 23f
11:10pm 10 15 mph 1023mb 23f
11:00pm 8 16 mph 1022.4mb 23f
10:50pm 10 18 mph 1023mb 24f
10:40pm 10 18 mph 1023mb 24f
10:30pm 9 17 mph 1022.7mb 24f
10:20pm 13 17 mph 1022mb 24f
10:18pm 10 21 mph 1023mb 24f
10:10pm 11 20 mph 1023mb 24f
10:00pm 14 18 mph 1022.4mb 24f
9:50pm 15 21 mph 1022mb 24f
9:40pm 13 21 mph 1022.7mb 24f
9:30pm 14 20 mph 1022.7mb 24f
9:20pm 14 22 mph 1022mb 24f
9:17pm 13 22 mph 1022mb 24f
9:10pm 17 21 mph 1022mb 24f
9:00pm 13 21 mph 1022.7mb 24f
8:50pm 15 18 mph 1021.7mb 24f
8:40pm 13 20 mph 1022.4mb 24f
8:30pm 14 22 mph 1022.4mb 24f
8:20pm 15 23 mph 1022.4mb 24f
8:17pm 16 25 mph 1022.4mb 24f
8:10pm 17 22 mph 1021.7mb 24f
8:00pm 17 23 mph 1021.3mb 24f
7:50pm 18 24 mph 1021.7mb 24f
7:40pm 18 24 mph 1022mb 24f
7:30pm 18 25 mph 1021.7mb 24f
7:20pm 20 26 mph 1021mb 23f
7:16pm 22 28 mph 1021.3mb 24f
7:10pm 18 25 mph 1021.3mb 23f
7:00pm 22 25 mph 1021.7mb 24f
6:50pm 18 28 mph 1021.7mb 24f
6:40pm 21 25 mph 1021.3mb 24f
6:30pm 18 28 mph 1021.3mb 24f
6:20pm 21 26 mph 1021.7mb 24f
6:16pm 22 29 mph 1021.3mb 24f
6:10pm 20 25 mph 1021.7mb 24f
6:00pm 18 26 mph 1021.3mb 24f
5:50pm 22 29 mph 1021.3mb 23f
5:40pm 21 26 mph 1020.7mb 24f
5:30pm 20 26 mph 1021mb 24f
5:20pm 21 26 mph 1021.3mb 24f
5:16pm 22
mph
1021mb 24f
5:10pm 21 28 mph 1021.3mb 24f
5:00pm 22 28 mph 1021.3mb 24f
4:50pm 22 30 mph 1021mb 24f
4:40pm 21 30 mph 1020.3mb 24f
4:30pm 21 29 mph 1020.3mb 24f
4:20pm 23 30 mph 1020.7mb 24f
4:15pm 24 29 mph 1021.3mb 24f
4:10pm 24 30 mph 1021mb 24f
4:00pm 22 31 mph 1021.3mb 24f
3:50pm 23 30 mph 1021mb 24f
3:40pm 22 29 mph 1020.7mb 25f
3:30pm 24 31 mph 1020.3mb 25f
3:20pm 26 32 mph 1020.3mb 25f
3:15pm 23
mph
1021.3mb 25f
3:10pm 23 30 mph 1020.3mb 25f
3:00pm 22 31 mph 1021mb 24f
2:50pm 22 26 mph 1021.3mb 24f
2:40pm 23 28 mph 1021.3mb 25f
2:30pm 21 28 mph 1021mb 26f
2:20pm 24 30 mph 1020.3mb 26f
2:14pm 24
mph
1021mb 25f
2:10pm 18 28 mph 1020.7mb 25f
2:00pm 23 28 mph 1021mb 25f
1:50pm 22 26 mph 1020.7mb 25f
1:40pm 20 25 mph 1021.3mb 25f
1:30pm 20 24 mph 1021.3mb 25f
1:20pm 20 24 mph 1021mb 26f
1:14pm 18 26 mph 1020.7mb 26f
1:10pm 20 25 mph 1021mb 26f
1:00pm 17 24 mph 1020.7mb 26f
12:50pm 16 23 mph 1020.7mb 26f
12:40pm 18 24 mph 1020.7mb 26f
12:30pm 17 26 mph 1021mb 26f
12:20pm 21 26 mph 1021.3mb 26f
12:13pm 17 26 mph 1021.7mb 26f
12:10pm 20 25 mph 1021.3mb 26f
12:00pm 18 26 mph 1021mb 25f
11:50am 17 23 mph 1021mb 25f
11:40am 18 25 mph 1020.3mb 26f
11:30am 17 26 mph 1020.3mb 26f
11:20am 16 25 mph 1020.7mb 25f
11:13am 16 28 mph 1020.7mb 25f
11:10am 17 22 mph 1020.7mb 25f
11:00am 15 28 mph 1021mb 25f
10:50am 20 28 mph 1020.7mb 25f
10:40am 15 24 mph 1020mb 25f
10:30am 17 24 mph 1020mb 25f
10:20am 11 25 mph 1020.3mb 25f
10:13am 15 26 mph 1020.3mb 25f
10:10am 18 24 mph 1020.7mb 25f
10:00am 15 24 mph 1020mb 24f
9:50am 18 22 mph 1019.6mb 24f
9:40am 15 26 mph 1019.6mb 23f
9:30am 15 20 mph 1020.3mb 24f
9:20am 11 18 mph 1019.6mb 24f
9:10am 11 18 mph 1019.3mb 24f
9:00am 13 20 mph 1019.6mb 24f
8:50am 17 25 mph 1020mb 25f
8:40am 18 24 mph 1019.6mb 26f
8:30am 13 18 mph 1019.3mb 26f
8:20am 10 14 mph 1019.3mb 24f
8:10am 7 15 mph 1020mb 24f
8:00am 9 21 mph 1020mb 24f
7:50am 13 24 mph 1020mb 26f
7:40am 18 23 mph 1019.3mb 26f
7:30am 20 25 mph 1019.3mb 26f
7:20am 16 20 mph 1019.6mb 25f
7:11am 14 25 mph 1019.6mb 25f
7:10am 14 22 mph 1019.6mb 25f
7:00am 18 24 mph 1019.3mb 26f
6:50am 21 25 mph 1019mb 26f
6:40am 15 22 mph 1019.6mb 24f
6:30am 11 16 mph 1019.6mb 24f
6:20am 11 21 mph 1018.6mb 24f
6:11am 11 22 mph 1019mb 24f
6:10am 11 22 mph 1019.3mb 24f
6:00am 17 22 mph 1019.3mb 24f
5:50am 14 21 mph 1019.6mb 24f
5:40am 7 16 mph 1019.3mb 24f
5:30am 7 17 mph 1018.6mb 24f
5:20am 10 15 mph 1019mb 24f
5:10am 8 21 mph 1018.6mb 24f
5:00am 10 15 mph 1019.3mb 24f
4:50am 8 14 mph 1018.6mb 25f
4:40am 9 18 mph 1018.3mb 25f
4:30am 13 18 mph 1018.3mb 25f
4:20am 13 22 mph 1018.6mb 25f
4:10am 13 26 mph 1018.3mb 26f
4:00am 10 18 mph 1017.9mb 26f
3:50am 11 17 mph 1017.6mb 26f
3:40am 15 24 mph 1017.9mb 26f
3:30am 20 26 mph 1017.9mb 26f
3:20am 17 25 mph 1018.3mb 26f
3:10am 17 28 mph 1017.6mb 26f
3:00am 15 28 mph 1017.6mb 26f
2:50am 18 25 mph 1017.3mb 27f
2:40am 21 28 mph 1017.6mb 27f
2:30am 20 28 mph 1017.6mb 27f
2:20am 17 24 mph 1017.9mb 27f
2:10am 17 26 mph 1018.3mb 27f
2:09am 20 26 mph 1018.3mb 27f
2:00am 15 23 mph 1017.9mb 27f
1:50am 16 23 mph 1017.6mb 28f
1:40am 14 22 mph 1017.3mb 28f
1:30am 17 24 mph 1017.6mb 28f
1:20am 17 23 mph 1017.9mb 28f
1:10am 16 23 mph 1017.9mb 28f
1:09am 17 24 mph 1018.3mb 28f
1:00am 18 23 mph 1018.3mb 28f
12:50am 17 24 mph 1018.3mb 29f
12:40am 17 24 mph 1017.9mb 29f
12:30am 17 24 mph 1018.3mb 29f
12:20am 17 23 mph 1017.6mb 30f
12:10am 15 22 mph 1017.6mb 30f
12:08am 14 25 mph 1017.6mb 30f
12:00am 17 23 mph 1017.9mb 30f
Thu 03/26 11:50pm 16 23 mph 1017.6mb 30f
11:40pm 15 23 mph 1017.9mb 30f
11:30pm 15 23 mph 1017.9mb 30f
11:20pm 15 25 mph 1017.9mb 30f
11:10pm 16 20 mph 1018.3mb 31f
11:08pm 15 18 mph 1017.9mb 31f
11:00pm 13 17 mph 1017.9mb 31f
10:50pm 9 14 mph 1017.3mb 32f
10:40pm 13 15 mph 1016.9mb 32f
10:30pm 11 14 mph 1017.3mb 32f
10:20pm 10 13 mph 1017.3mb 32f
10:10pm 9 13 mph 1017.3mb 32f
10:08pm 10 15 mph 1017.9mb 32f
10:00pm 8 10 mph 1017.6mb 32f
9:50pm 8 13 mph 1017.3mb 32f
9:40pm 9 14 mph 1017.6mb 32f
9:30pm 9 15 mph 1017.9mb 32f
9:20pm 9 15 mph 1017.9mb 32f
9:10pm 11 20 mph 1017.9mb 33f
9:07pm 13 20 mph 1016.9mb 33f
9:00pm 13 16 mph 1017.6mb 33f
8:50pm 8 10 mph 1017.3mb 33f
8:40pm 7 11 mph 1016.6mb 33f
8:30pm 6 13 mph 1016.6mb 33f
8:20pm 8 13 mph 1016.6mb 33f
8:10pm 9 11 mph 1016.3mb 33f
8:07pm 9 15 mph 1016.9mb 33f
8:00pm 10 15 mph 1015.9mb 33f
7:50pm 13 15 mph 1015.9mb 33f
7:40pm 11 15 mph 1016.3mb 33f
7:30pm 10 15 mph 1016.3mb 33f
7:20pm 11 14 mph 1016.6mb 33f
7:10pm 9 13 mph 1016.3mb 33f
7:06pm 10 13 mph 1016.6mb 33f
7:00pm 8 11 mph 1016.3mb 34f
6:50pm 8 11 mph 1016.6mb 34f
6:40pm 7 9 mph 1016.6mb 34f
6:30pm 7 9 mph 1016.6mb 34f
6:20pm 7 9 mph 1016.6mb 34f
6:10pm 7 9 mph 1016.6mb 34f
6:06pm 8 15 mph 1016.3mb 34f
6:00pm 7 10 mph 1016.6mb 34f
5:50pm 8 10 mph 1016.6mb 34f
5:40pm 10 13 mph 1016.6mb 34f
5:30pm 11 15 mph 1016.6mb 34f
5:20pm 8 11 mph 1016.3mb 34f
5:10pm 5 6 mph 1016.3mb 34f
5:06pm 6 7 mph 1016.3mb 34f
5:00pm 5 6 mph 1016.3mb 34f
4:50pm 5 7 mph 1015.9mb 35f
4:40pm 6 7 mph 1015.9mb 35f
4:30pm 5 6 mph 1015.9mb 35f
4:20pm 5 6 mph 1015.6mb 35f
4:10pm 5 6 mph 1015.2mb 36f
4:05pm 3 5 mph 1015.2mb 37f
4:00pm 3 5 mph 1014.9mb 38f
3:50pm 2 3 mph 1014.6mb 38f
3:40pm 2 3 mph 1014.2mb 38f
3:30pm 3 5 mph 1014.2mb 37f
3:20pm 3 5 mph 1014.2mb 36f
3:10pm 3 6 mph 1013.9mb 35f
3:05pm 3 8 mph 1014.6mb 35f
3:00pm 5 6 mph 1013.9mb 35f
2:50pm 6 7 mph 1013.9mb 35f
2:40pm 6 7 mph 1014.2mb 35f
2:30pm 6 8 mph 1014.2mb 35f
2:20pm 5 8 mph 1014.2mb 35f
2:10pm 6 8 mph 1014.2mb 35f
2:04pm 6 9 mph 1014.6mb 35f
2:00pm 6 9 mph 1014.2mb 35f
1:50pm 8 9 mph 1014.2mb 35f
1:40pm 7 9 mph 1014.2mb 35f
1:30pm 7 9 mph 1014.2mb 35f